Time;durP1;ratioP1;P1;durP2;ratioP2;P2;SDS_P1;SDS_P2;PMS_P1;PMS_P2;Temp;Humidity;BMP_temperature;BMP_pressure;BME280_temperature;BME280_humidity;BME280_pressure;Samples;Min_cycle;Max_cycle;Signal;HPM_P1;HPM_P2
2021/07/06 00:01:28;;;;;;;1.63;1.52;;;17.00;99.90;;;;;;5031936;28;20487;-77
2021/07/06 00:03:53;;;;;;;3.05;1.90;;;17.10;99.90;;;;;;5031929;28;20110;-75
2021/07/06 00:06:20;;;;;;;2.00;1.45;;;17.20;99.90;;;;;;5030236;28;20079;-75
2021/07/06 00:08:45;;;;;;;1.95;1.60;;;17.30;99.90;;;;;;5031806;28;20557;-75
2021/07/06 00:11:11;;;;;;;5.32;1.95;;;17.30;99.90;;;;;;5030576;28;20034;-75
2021/07/06 00:13:37;;;;;;;2.60;1.63;;;17.20;99.90;;;;;;5031856;28;20514;-75
2021/07/06 00:16:02;;;;;;;4.07;1.80;;;17.00;99.90;;;;;;5030242;28;20120;-75
2021/07/06 00:18:28;;;;;;;3.80;1.77;;;16.80;99.90;;;;;;5031811;28;20096;-75
2021/07/06 00:20:54;;;;;;;5.88;2.00;;;16.70;99.90;;;;;;5031763;28;20399;-75
2021/07/06 00:23:19;;;;;;;5.95;2.10;;;16.60;99.90;;;;;;5031018;28;20037;-75
2021/07/06 00:25:45;;;;;;;2.88;2.05;;;16.70;99.90;;;;;;5030105;28;20032;-76
2021/07/06 00:28:10;;;;;;;3.53;2.10;;;16.70;99.90;;;;;;5029558;28;20044;-76
2021/07/06 00:30:36;;;;;;;2.65;1.80;;;16.70;99.90;;;;;;5029747;28;20017;-74
2021/07/06 00:33:01;;;;;;;4.95;2.10;;;16.80;99.90;;;;;;5030684;28;20387;-76
2021/07/06 00:35:27;;;;;;;4.25;2.40;;;16.70;99.90;;;;;;5031729;28;20025;-77
2021/07/06 00:37:52;;;;;;;3.38;2.30;;;16.20;99.90;;;;;;5031823;28;20083;-75
2021/07/06 00:40:18;;;;;;;3.22;1.83;;;16.10;99.90;;;;;;5032228;28;20029;-76
2021/07/06 00:42:46;;;;;;;3.00;1.90;;;16.40;99.90;;;;;;5030620;28;20112;-76
2021/07/06 00:45:13;;;;;;;2.80;1.92;;;16.70;99.90;;;;;;5030009;28;20112;-76
2021/07/06 00:47:40;;;;;;;3.00;1.80;;;16.60;99.90;;;;;;5031546;28;20022;-76
2021/07/06 00:50:20;;;;;;;2.08;1.48;;;16.80;99.90;;;;;;5031726;28;20067;-76
2021/07/06 00:52:45;;;;;;;1.75;1.55;;;17.00;99.90;;;;;;5030454;28;20026;-76
2021/07/06 00:55:12;;;;;;;3.50;1.90;;;17.10;99.90;;;;;;5032630;28;20022;-75
2021/07/06 00:57:38;;;;;;;3.90;1.85;;;17.00;99.90;;;;;;5035687;28;20630;-76
2021/07/06 01:00:14;;;;;;;5.90;2.15;;;16.70;99.90;;;;;;5034071;28;20029;-75
2021/07/06 01:02:40;;;;;;;5.93;2.30;;;16.50;99.90;;;;;;5036149;28;20033;-77
2021/07/06 01:05:09;;;;;;;5.30;2.47;;;16.40;99.90;;;;;;5034155;28;20121;-77
2021/07/06 01:07:35;;;;;;;4.00;2.15;;;16.30;99.90;;;;;;5034440;28;20029;-76
2021/07/06 01:10:03;;;;;;;7.82;2.40;;;16.10;99.90;;;;;;5033867;28;20022;-75
2021/07/06 01:12:31;;;;;;;6.88;2.40;;;16.10;99.90;;;;;;5035023;28;20030;-75
2021/07/06 01:14:57;;;;;;;3.22;2.53;;;16.20;99.90;;;;;;5033527;28;20511;-76
2021/07/06 01:17:27;;;;;;;3.17;2.10;;;16.30;99.90;;;;;;5033693;28;20048;-76
2021/07/06 01:19:53;;;;;;;4.60;2.30;;;16.30;99.90;;;;;;5034876;28;20033;-76
2021/07/06 01:22:30;;;;;;;4.32;2.15;;;16.40;99.90;;;;;;5033752;28;20494;-76
2021/07/06 01:24:56;;;;;;;6.38;2.30;;;16.50;99.90;;;;;;5034750;28;20029;-76
2021/07/06 01:27:22;;;;;;;2.90;2.08;;;16.50;99.90;;;;;;5034559;28;20032;-75
2021/07/06 01:29:48;;;;;;;3.35;2.00;;;16.50;99.90;;;;;;5034801;28;20018;-76
2021/07/06 01:32:13;;;;;;;4.05;2.05;;;16.60;99.90;;;;;;5034515;28;20021;-76
2021/07/06 01:34:39;;;;;;;3.50;1.70;;;16.60;99.90;;;;;;5034382;28;20483;-76
2021/07/06 01:37:05;;;;;;;4.10;2.10;;;16.70;99.90;;;;;;5034436;28;20025;-76
2021/07/06 01:39:30;;;;;;;4.28;2.05;;;16.80;99.90;;;;;;5033241;28;20032;-76
2021/07/06 01:41:56;;;;;;;4.20;1.80;;;16.90;99.90;;;;;;5034483;28;20061;-74
2021/07/06 01:44:27;;;;;;;3.28;2.00;;;16.80;99.90;;;;;;5034354;28;20025;-75
2021/07/06 01:46:55;;;;;;;2.83;2.00;;;16.80;99.90;;;;;;5034163;28;20376;-74
2021/07/06 01:49:21;;;;;;;1.83;1.70;;;16.90;99.90;;;;;;5033107;28;20040;-76
2021/07/06 01:51:47;;;;;;;3.38;1.88;;;16.90;99.90;;;;;;5034532;28;20479;-76
2021/07/06 01:54:14;;;;;;;2.25;1.92;;;16.90;99.90;;;;;;5034421;28;20519;-75
2021/07/06 01:56:42;;;;;;;2.92;2.00;;;16.90;99.90;;;;;;5032691;28;20048;-75
2021/07/06 01:59:08;;;;;;;2.97;2.17;;;17.00;99.90;;;;;;5034296;28;20024;-76
2021/07/06 02:01:35;;;;;;;4.72;2.00;;;17.00;99.90;;;;;;5034752;28;20033;-77
2021/07/06 02:04:02;;;;;;;3.88;2.10;;;17.00;99.90;;;;;;5035353;28;20037;-77
2021/07/06 02:06:28;;;;;;;3.13;2.10;;;16.90;99.90;;;;;;5036295;28;20116;-77
2021/07/06 02:08:54;;;;;;;3.50;2.10;;;16.90;99.90;;;;;;5037853;28;20108;-76
2021/07/06 02:11:19;;;;;;;2.25;1.90;;;16.90;99.90;;;;;;5032878;28;20556;-76
2021/07/06 02:13:45;;;;;;;3.45;2.20;;;16.90;99.90;;;;;;5032884;28;20436;-76
2021/07/06 02:16:11;;;;;;;5.43;2.53;;;16.90;99.90;;;;;;5034082;28;20104;-76
2021/07/06 02:18:37;;;;;;;3.58;1.80;;;16.90;99.90;;;;;;5035928;28;20052;-76
2021/07/06 02:21:03;;;;;;;2.20;1.90;;;16.90;99.90;;;;;;5041303;28;20033;-77
2021/07/06 02:23:30;;;;;;;5.25;2.58;;;16.90;99.90;;;;;;5033469;28;20487;-76
2021/07/06 02:25:57;;;;;;;2.53;2.20;;;16.90;99.90;;;;;;5033421;28;20067;-75
2021/07/06 02:28:23;;;;;;;3.60;2.10;;;16.90;99.90;;;;;;5033662;28;20106;-75
2021/07/06 02:30:49;;;;;;;2.92;1.90;;;17.00;99.90;;;;;;5032391;28;20521;-75
2021/07/06 02:33:16;;;;;;;4.72;2.20;;;17.00;99.90;;;;;;5033615;28;20392;-77
2021/07/06 02:35:41;;;;;;;2.30;2.10;;;17.00;99.90;;;;;;5033226;28;20045;-76
2021/07/06 02:38:07;;;;;;;2.70;2.28;;;17.00;99.90;;;;;;5033525;28;20033;-75
2021/07/06 02:40:34;;;;;;;5.40;2.20;;;17.00;99.90;;;;;;5033696;28;20021;-74
2021/07/06 02:43:00;;;;;;;2.28;2.08;;;17.00;99.90;;;;;;5033323;28;20041;-75
2021/07/06 02:45:27;;;;;;;3.40;2.15;;;16.90;99.90;;;;;;5032877;28;20037;-75
2021/07/06 02:47:53;;;;;;;2.22;1.80;;;16.90;99.90;;;;;;5033373;28;20113;-75
2021/07/06 02:50:20;;;;;;;3.92;1.98;;;16.80;99.90;;;;;;5033250;28;20108;-75
2021/07/06 02:52:46;;;;;;;3.42;1.95;;;16.80;99.90;;;;;;5033458;28;20068;-75
2021/07/06 02:55:12;;;;;;;3.25;2.10;;;16.70;99.90;;;;;;5032923;28;20088;-75
2021/07/06 02:57:39;;;;;;;6.03;2.28;;;16.80;99.90;;;;;;5032991;28;20045;-75
2021/07/06 03:00:09;;;;;;;5.07;2.28;;;16.80;99.90;;;;;;5033082;28;20022;-75
2021/07/06 03:02:39;;;;;;;2.65;1.90;;;16.70;99.90;;;;;;5033528;28;20026;-76
2021/07/06 03:05:08;;;;;;;2.78;2.25;;;16.80;99.90;;;;;;5032664;28;20031;-76
2021/07/06 03:07:34;;;;;;;3.30;1.85;;;16.80;99.90;;;;;;5032756;28;20392;-76
2021/07/06 03:10:08;;;;;;;4.15;2.08;;;16.60;99.90;;;;;;5032695;28;20542;-77
2021/07/06 03:12:33;;;;;;;4.85;2.40;;;16.60;99.90;;;;;;5032777;28;20037;-76
2021/07/06 03:14:59;;;;;;;4.97;2.20;;;16.40;99.90;;;;;;5031276;28;20111;-75
2021/07/06 03:17:24;;;;;;;3.92;2.03;;;16.20;99.90;;;;;;5032561;28;20482;-75
2021/07/06 03:19:50;;;;;;;4.00;2.30;;;16.10;99.90;;;;;;5033039;28;20038;-75
2021/07/06 03:22:16;;;;;;;4.60;2.63;;;16.20;99.90;;;;;;5032670;28;20108;-75
2021/07/06 03:24:41;;;;;;;5.93;2.28;;;16.30;99.90;;;;;;5032097;28;20037;-75
2021/07/06 03:27:07;;;;;;;4.10;2.20;;;16.30;99.90;;;;;;5032417;28;20064;-75
2021/07/06 03:29:32;;;;;;;5.88;2.83;;;16.30;99.90;;;;;;5032450;28;20083;-75
2021/07/06 03:31:58;;;;;;;4.15;2.53;;;16.30;99.90;;;;;;5031187;28;20022;-75
2021/07/06 03:34:23;;;;;;;6.03;2.70;;;16.20;99.90;;;;;;5030814;28;20498;-74
2021/07/06 03:36:49;;;;;;;7.63;2.47;;;16.20;99.90;;;;;;5032411;28;20033;-74
2021/07/06 03:39:15;;;;;;;6.47;2.60;;;16.10;99.90;;;;;;5032176;28;20036;-75
2021/07/06 03:41:40;;;;;;;5.72;2.40;;;16.10;99.90;;;;;;5032411;28;20079;-74
2021/07/06 03:44:06;;;;;;;5.65;2.40;;;16.10;99.90;;;;;;5032153;28;20112;-75
2021/07/06 03:46:32;;;;;;;8.35;2.90;;;16.20;99.90;;;;;;5031899;28;20031;-75
2021/07/06 03:49:00;;;;;;;3.65;2.40;;;16.20;99.90;;;;;;5032177;28;20420;-75
2021/07/06 03:51:26;;;;;;;5.25;2.15;;;16.10;99.90;;;;;;5032219;28;20522;-76
2021/07/06 03:53:51;;;;;;;7.38;2.28;;;16.10;99.90;;;;;;5031192;28;20268;-76
2021/07/06 03:56:17;;;;;;;4.22;2.20;;;16.20;99.90;;;;;;5031274;28;20049;-76
2021/07/06 03:58:42;;;;;;;4.32;2.58;;;16.20;99.90;;;;;;5032162;28;20037;-76
2021/07/06 04:01:08;;;;;;;4.53;2.20;;;16.20;99.90;;;;;;5032219;28;20103;-76
2021/07/06 04:03:33;;;;;;;4.20;2.22;;;15.90;99.90;;;;;;5030745;28;20036;-75
2021/07/06 04:05:59;;;;;;;9.80;2.40;;;15.80;99.90;;;;;;5031677;28;20034;-75
2021/07/06 04:08:24;;;;;;;7.05;2.53;;;15.80;99.90;;;;;;5031712;28;20025;-76
2021/07/06 04:10:50;;;;;;;4.03;2.40;;;16.00;99.90;;;;;;5030683;28;20025;-77
2021/07/06 04:13:15;;;;;;;4.78;2.80;;;15.90;99.90;;;;;;5032068;28;20018;-74
2021/07/06 04:15:41;;;;;;;7.22;2.50;;;16.00;99.90;;;;;;5031526;28;20112;-74
2021/07/06 04:18:07;;;;;;;6.70;2.42;;;16.00;99.90;;;;;;5031803;28;20029;-76
2021/07/06 04:20:33;;;;;;;3.70;2.58;;;16.30;99.90;;;;;;5031926;28;20503;-77
2021/07/06 04:22:59;;;;;;;4.13;2.35;;;16.30;99.90;;;;;;5030579;28;20099;-75
2021/07/06 04:25:24;;;;;;;4.82;2.33;;;16.30;99.90;;;;;;5031251;28;20030;-76
2021/07/06 04:27:51;;;;;;;5.13;2.45;;;16.30;99.90;;;;;;5031746;28;20026;-75
2021/07/06 04:30:18;;;;;;;2.88;2.20;;;16.40;99.90;;;;;;5030954;28;20021;-76
2021/07/06 04:32:44;;;;;;;3.80;2.33;;;16.50;99.90;;;;;;5031868;28;20049;-75
2021/07/06 04:35:09;;;;;;;4.15;2.05;;;16.60;99.90;;;;;;5031412;28;20498;-75
2021/07/06 04:37:35;;;;;;;4.65;2.58;;;16.70;99.90;;;;;;5031236;28;20037;-76
2021/07/06 04:40:02;;;;;;;4.57;2.30;;;16.80;99.90;;;;;;5031552;28;20535;-75
2021/07/06 04:42:27;;;;;;;3.00;2.10;;;16.90;99.90;;;;;;5031531;28;20021;-71
2021/07/06 04:44:53;;;;;;;4.43;2.28;;;16.90;99.90;;;;;;5031300;28;20707;-75
2021/07/06 04:47:18;;;;;;;2.75;2.30;;;16.90;99.90;;;;;;5031279;28;20030;-75
2021/07/06 04:49:44;;;;;;;2.95;2.33;;;17.00;99.90;;;;;;5031509;28;20026;-75
2021/07/06 04:52:09;;;;;;;3.35;2.00;;;17.10;99.90;;;;;;5030288;28;20436;-75
2021/07/06 04:54:35;;;;;;;3.00;2.72;;;17.20;99.90;;;;;;5031326;28;20025;-75
2021/07/06 04:57:01;;;;;;;2.58;2.00;;;17.30;99.90;;;;;;5031387;28;20029;-75
2021/07/06 04:59:26;;;;;;;2.50;2.03;;;17.40;99.90;;;;;;5030233;28;20112;-75
2021/07/06 05:01:52;;;;;;;2.10;1.80;;;17.50;99.90;;;;;;5030319;28;20487;-77
2021/07/06 05:04:18;;;;;;;3.85;2.00;;;17.60;99.90;;;;;;5031444;28;20037;-74
2021/07/06 05:06:43;;;;;;;4.97;1.85;;;17.60;99.90;;;;;;5031102;28;20029;-75
2021/07/06 05:09:09;;;;;;;2.65;2.03;;;17.70;99.90;;;;;;5031423;28;20021;-76
2021/07/06 05:11:35;;;;;;;2.00;1.67;;;17.80;99.90;;;;;;5031357;28;20076;-76
2021/07/06 05:14:01;;;;;;;2.45;1.85;;;18.00;99.90;;;;;;5030166;28;20053;-76
2021/07/06 05:16:27;;;;;;;3.85;1.90;;;18.10;99.90;;;;;;5031039;28;20033;-76
2021/07/06 05:18:52;;;;;;;2.90;2.03;;;18.30;99.90;;;;;;5031348;28;20034;-76
2021/07/06 05:21:18;;;;;;;3.13;2.00;;;18.40;99.90;;;;;;5031266;28;20044;-74
2021/07/06 05:23:44;;;;;;;4.75;1.95;;;18.50;99.90;;;;;;5031133;28;20033;-76
2021/07/06 05:26:12;;;;;;;2.80;1.98;;;18.60;99.90;;;;;;5030954;28;20061;-76
2021/07/06 05:28:38;;;;;;;2.00;1.83;;;18.70;99.90;;;;;;5031303;28;20475;-77
2021/07/06 05:31:04;;;;;;;1.65;1.55;;;18.70;99.90;;;;;;5031207;28;20033;-77
2021/07/06 05:33:30;;;;;;;2.30;1.67;;;18.80;99.90;;;;;;5031223;28;20064;-77
2021/07/06 05:35:56;;;;;;;2.53;2.00;;;18.90;99.90;;;;;;5029638;28;20475;-76
2021/07/06 05:38:22;;;;;;;2.95;1.98;;;19.00;99.90;;;;;;5031045;28;20391;-78
2021/07/06 05:40:54;;;;;;;2.17;1.40;;;19.10;99.90;;;;;;5030329;28;20039;-75
2021/07/06 05:43:20;;;;;;;3.67;1.75;;;19.20;99.90;;;;;;5034809;28;20677;-76
2021/07/06 05:45:45;;;;;;;2.80;2.28;;;19.30;99.90;;;;;;5034348;28;20037;-77
2021/07/06 05:48:11;;;;;;;2.00;1.80;;;19.50;99.90;;;;;;5033395;28;20083;-76
2021/07/06 05:50:36;;;;;;;3.10;1.60;;;19.60;99.90;;;;;;5034539;28;20402;-76
2021/07/06 05:53:02;;;;;;;1.60;1.50;;;19.70;99.90;;;;;;5034510;28;20021;-77
2021/07/06 05:55:28;;;;;;;6.40;1.67;;;19.80;99.90;;;;;;5032841;28;20163;-76
2021/07/06 05:57:53;;;;;;;2.17;1.60;;;19.90;99.90;;;;;;5034486;28;20053;-74
2021/07/06 06:00:19;;;;;;;3.28;1.48;;;20.00;99.90;;;;;;5034427;28;20100;-76
2021/07/06 06:02:46;;;;;;;1.92;1.55;;;20.10;99.90;;;;;;5034469;28;20498;-76
2021/07/06 06:05:12;;;;;;;2.53;1.63;;;20.20;99.90;;;;;;5032888;28;20068;-76
2021/07/06 06:07:41;;;;;;;3.40;1.65;;;20.20;99.90;;;;;;5034160;28;20728;-76
2021/07/06 06:10:09;;;;;;;2.80;1.40;;;20.30;99.90;;;;;;5032960;28;20026;-76
2021/07/06 06:12:36;;;;;;;1.67;1.42;;;20.40;99.90;;;;;;5034192;28;20033;-77
2021/07/06 06:15:03;;;;;;;2.28;1.70;;;20.60;99.90;;;;;;5034194;28;20033;-77
2021/07/06 06:17:28;;;;;;;1.33;1.20;;;20.60;99.90;;;;;;5034031;28;20037;-77
2021/07/06 06:19:54;;;;;;;3.05;1.50;;;20.70;99.90;;;;;;5032855;28;20022;-77
2021/07/06 06:22:20;;;;;;;1.45;1.35;;;20.70;99.90;;;;;;5034096;28;20079;-76
2021/07/06 06:24:45;;;;;;;5.15;1.60;;;20.80;99.90;;;;;;5033092;28;20025;-76
2021/07/06 06:27:12;;;;;;;1.50;1.30;;;20.90;99.90;;;;;;5012872;28;20412;-77
2021/07/06 06:29:37;;;;;;;2.72;1.50;;;20.90;99.90;;;;;;5033766;28;20025;-76
2021/07/06 06:32:03;;;;;;;1.60;1.40;;;20.90;99.90;;;;;;5032633;28;20030;-77
2021/07/06 06:34:29;;;;;;;2.50;1.40;;;21.00;99.90;;;;;;5033479;28;20499;-77
2021/07/06 06:36:54;;;;;;;2.00;1.60;;;21.10;99.90;;;;;;5033656;28;20075;-76
2021/07/06 06:39:21;;;;;;;1.88;1.30;;;21.30;99.90;;;;;;5033563;28;20458;-77
2021/07/06 06:41:47;;;;;;;2.95;1.33;;;21.40;99.90;;;;;;5033690;28;20462;-77
2021/07/06 06:44:12;;;;;;;2.25;1.40;;;21.50;99.90;;;;;;5033569;28;20025;-76
2021/07/06 06:46:38;;;;;;;2.55;1.23;;;21.50;99.90;;;;;;5032016;28;20030;-76
2021/07/06 06:49:04;;;;;;;2.53;1.42;;;21.60;99.90;;;;;;5033526;28;20026;-77
2021/07/06 06:51:31;;;;;;;4.75;1.45;;;21.80;99.90;;;;;;5033519;28;20542;-77
2021/07/06 06:53:57;;;;;;;1.58;1.40;;;21.70;99.90;;;;;;5033209;28;20384;-76
2021/07/06 06:56:22;;;;;;;1.65;1.25;;;21.70;99.90;;;;;;5033170;28;20030;-76
2021/07/06 06:58:48;;;;;;;3.83;1.45;;;21.70;99.90;;;;;;5031951;28;20025;-77
2021/07/06 07:01:14;;;;;;;2.40;1.65;;;21.90;99.90;;;;;;5037617;28;20447;-77
2021/07/06 07:03:39;;;;;;;1.35;1.20;;;22.10;99.90;;;;;;5039390;28;20068;-78
2021/07/06 07:06:05;;;;;;;1.33;1.13;;;22.00;99.90;;;;;;5036630;28;20025;-77
2021/07/06 07:08:30;;;;;;;2.22;1.60;;;21.80;99.90;;;;;;5032001;28;20112;-74
2021/07/06 07:10:56;;;;;;;4.07;1.80;;;21.70;99.90;;;;;;5033002;28;20472;-77
2021/07/06 07:13:21;;;;;;;3.22;1.52;;;21.40;99.90;;;;;;5032899;28;20021;-77
2021/07/06 07:15:47;;;;;;;3.05;1.20;;;21.70;99.90;;;;;;5033039;28;20032;-77
2021/07/06 07:18:13;;;;;;;2.20;1.40;;;21.80;99.90;;;;;;5031537;28;20491;-76
2021/07/06 07:20:39;;;;;;;2.35;1.42;;;22.00;99.90;;;;;;5032537;28;20026;-76
2021/07/06 07:23:04;;;;;;;4.78;1.63;;;22.20;99.90;;;;;;5032822;28;20391;-76
2021/07/06 07:25:32;;;;;;;2.20;1.08;;;22.30;99.90;;;;;;5032268;28;20037;-76
2021/07/06 07:27:57;;;;;;;2.38;1.40;;;22.40;99.90;;;;;;5031385;28;20167;-76
2021/07/06 07:30:23;;;;;;;2.35;1.30;;;22.50;99.90;;;;;;5032640;28;20098;-76
2021/07/06 07:32:49;;;;;;;2.47;1.50;;;22.40;99.90;;;;;;5032554;28;20053;-77
2021/07/06 07:35:16;;;;;;;2.28;1.30;;;22.50;99.90;;;;;;5032366;28;20025;-76
2021/07/06 07:37:42;;;;;;;2.20;1.20;;;22.70;99.90;;;;;;5032285;28;20037;-75
2021/07/06 07:40:09;;;;;;;4.10;1.45;;;22.70;99.90;;;;;;5032563;28;20384;-76
2021/07/06 07:42:34;;;;;;;1.65;1.25;;;22.80;99.90;;;;;;5032289;28;20026;-75
2021/07/06 07:45:00;;;;;;;2.08;1.40;;;22.80;99.90;;;;;;5030994;28;20037;-76
2021/07/06 07:47:25;;;;;;;2.58;1.40;;;22.90;99.90;;;;;;5031995;28;20026;-76
2021/07/06 07:49:52;;;;;;;2.60;1.45;;;23.00;99.90;;;;;;5032232;28;20045;-76
2021/07/06 07:52:17;;;;;;;3.42;1.85;;;23.10;99.90;;;;;;5032227;28;20044;-76
2021/07/06 07:54:43;;;;;;;1.38;1.20;;;23.10;99.90;;;;;;5032090;28;20387;-76
2021/07/06 07:57:12;;;;;;;2.17;1.00;;;23.20;99.90;;;;;;5030776;28;20034;-76
2021/07/06 07:59:38;;;;;;;1.30;1.20;;;23.30;99.90;;;;;;5032059;28;20029;-75
2021/07/06 08:02:04;;;;;;;2.95;1.13;;;23.50;99.90;;;;;;5032008;28;20033;-75
2021/07/06 08:04:29;;;;;;;2.28;1.30;;;23.40;99.90;;;;;;5030982;28;20040;-75
2021/07/06 08:06:55;;;;;;;3.13;1.52;;;23.40;99.90;;;;;;5031864;28;20471;-75
2021/07/06 08:09:20;;;;;;;3.25;1.20;;;23.50;99.90;;;;;;5032051;28;20043;-76
2021/07/06 08:11:46;;;;;;;1.92;1.52;;;23.60;99.90;;;;;;5031896;28;20436;-75
2021/07/06 08:14:12;;;;;;;1.20;1.05;;;23.70;99.90;;;;;;5031868;28;20018;-76
2021/07/06 08:16:38;;;;;;;1.67;1.40;;;23.70;99.90;;;;;;5031568;28;20029;-76
2021/07/06 08:19:03;;;;;;;2.00;1.20;;;23.70;99.90;;;;;;5031838;28;20021;-75
2021/07/06 08:21:29;;;;;;;2.45;1.30;;;23.70;99.90;;;;;;5031813;28;20025;-76
2021/07/06 08:23:59;;;;;;;2.42;1.52;;;23.70;99.90;;;;;;5031813;28;20123;-76
2021/07/06 08:26:25;;;;;;;1.60;1.15;;;23.80;99.90;;;;;;5031428;28;20587;-75
2021/07/06 08:28:52;;;;;;;3.05;1.30;;;23.80;99.90;;;;;;5031647;28;20108;-76
2021/07/06 08:31:17;;;;;;;2.13;1.30;;;23.70;99.90;;;;;;5031704;28;20355;-76
2021/07/06 08:33:43;;;;;;;3.00;1.52;;;23.90;99.90;;;;;;5031404;28;20040;-75
2021/07/06 08:36:08;;;;;;;1.75;1.35;;;24.20;99.90;;;;;;5029963;28;20021;-76
2021/07/06 08:38:38;;;;;;;1.88;1.20;;;24.30;99.90;;;;;;5030373;28;20022;-75
2021/07/06 08:41:03;;;;;;;2.03;1.30;;;24.40;99.90;;;;;;5017079;28;20033;-75
2021/07/06 08:43:29;;;;;;;2.67;1.30;;;24.50;99.90;;;;;;5031533;28;20476;-76
2021/07/06 08:45:56;;;;;;;1.40;1.30;;;24.60;99.90;;;;;;5031244;28;20030;-75
2021/07/06 08:48:23;;;;;;;2.00;1.23;;;24.50;99.90;;;;;;5031507;28;20487;-75
2021/07/06 08:50:51;;;;;;;1.67;1.20;;;24.50;99.90;;;;;;5031426;28;20030;-76
2021/07/06 08:53:17;;;;;;;3.10;1.10;;;24.50;99.90;;;;;;5031502;28;20510;-75
2021/07/06 08:55:43;;;;;;;1.67;1.20;;;24.60;99.90;;;;;;5031177;28;20030;-73
2021/07/06 08:58:08;;;;;;;1.95;1.33;;;24.70;99.90;;;;;;5031260;28;20022;-75
2021/07/06 09:00:34;;;;;;;3.03;2.08;;;24.90;99.90;;;;;;5031344;28;20017;-75
2021/07/06 09:03:09;;;;;;;3.15;1.60;;;24.90;99.90;;;;;;5030263;28;20431;-76
2021/07/06 09:05:35;;;;;;;1.20;1.10;;;24.80;99.90;;;;;;5031158;28;20467;-76
2021/07/06 09:14:48;;;;;;;2.13;1.33;;;25.30;99.90;;;;;;5030801;28;20115;-75
2021/07/06 09:17:23;;;;;;;2.40;1.17;;;25.30;99.90;;;;;;5034635;28;20107;-76
2021/07/06 09:19:51;;;;;;;2.33;1.40;;;25.40;99.90;;;;;;5033794;28;20030;-76
2021/07/06 09:22:20;;;;;;;3.17;1.35;;;25.30;99.90;;;;;;5034865;28;20427;-76
2021/07/06 09:24:48;;;;;;;1.92;1.45;;;25.60;99.90;;;;;;5034716;28;20031;-75
2021/07/06 09:27:25;;;;;;;1.40;1.30;;;25.50;99.90;;;;;;5034779;28;20100;-75
2021/07/06 09:30:15;;;;;;;2.55;1.50;;;25.60;99.90;;;;;;5034945;28;20028;-75
2021/07/06 09:32:46;;;;;;;1.80;1.30;;;25.70;99.90;;;;;;5034751;28;20379;-76
2021/07/06 09:35:49;;;;;;;3.22;1.40;;;25.60;99.90;;;;;;5033326;28;20026;-76
2021/07/06 09:38:15;;;;;;;1.42;1.13;;;25.80;99.90;;;;;;5034737;28;20029;-75
2021/07/06 09:40:42;;;;;;;1.45;1.20;;;26.10;99.90;;;;;;5033311;28;20030;-76
2021/07/06 09:43:26;;;;;;;2.38;1.08;;;26.40;99.90;;;;;;5034614;28;20024;-75
2021/07/06 09:46:09;;;;;;;3.33;1.30;;;26.40;99.90;;;;;;5034006;28;20034;-76
2021/07/06 09:48:43;;;;;;;3.13;1.30;;;26.60;99.90;;;;;;5034427;28;20017;-76
2021/07/06 09:51:29;;;;;;;1.40;1.30;;;26.60;99.90;;;;;;5034578;28;20430;-75
2021/07/06 09:53:55;;;;;;;1.98;1.20;;;26.30;99.90;;;;;;5034157;28;20035;-75
2021/07/06 09:56:23;;;;;;;1.75;1.20;;;25.90;99.90;;;;;;5034096;28;20060;-76
2021/07/06 09:58:55;;;;;;;2.78;1.80;;;25.70;99.90;;;;;;5034448;28;20169;-76
2021/07/06 10:01:22;;;;;;;1.70;1.20;;;25.80;99.90;;;;;;5034447;28;20048;-76
2021/07/06 10:03:49;;;;;;;5.07;1.55;;;25.70;99.90;;;;;;5034312;28;20065;-76
2021/07/06 10:06:16;;;;;;;1.40;1.10;;;25.70;99.90;;;;;;5033903;28;20029;-78
2021/07/06 10:08:42;;;;;;;2.70;1.55;;;25.50;99.90;;;;;;5033768;28;20030;-76
2021/07/06 10:11:08;;;;;;;1.60;1.40;;;25.50;99.90;;;;;;5033505;28;20108;-76
2021/07/06 10:13:36;;;;;;;2.42;1.50;;;25.40;99.90;;;;;;5032336;28;20025;-76
2021/07/06 10:16:04;;;;;;;3.15;1.30;;;25.80;99.90;;;;;;5034005;28;20415;-76
2021/07/06 10:18:31;;;;;;;1.38;1.27;;;25.70;99.90;;;;;;5032855;28;20026;-76
2021/07/06 10:20:58;;;;;;;1.60;1.25;;;25.70;99.90;;;;;;5034130;28;20021;-75
2021/07/06 10:23:24;;;;;;;1.65;1.20;;;26.30;99.90;;;;;;5034117;28;20522;-76
2021/07/06 10:25:55;;;;;;;2.17;1.33;;;26.60;99.90;;;;;;5030724;28;20037;-76
2021/07/06 10:28:22;;;;;;;1.40;1.30;;;26.60;99.90;;;;;;5021069;28;20056;-76
2021/07/06 10:30:48;;;;;;;2.08;1.23;;;26.80;99.90;;;;;;5032643;28;20029;-76
2021/07/06 10:33:26;;;;;;;1.10;1.00;;;26.70;99.90;;;;;;5033915;28;20025;-75
2021/07/06 10:35:52;;;;;;;1.45;1.35;;;26.60;99.90;;;;;;5033572;28;20030;-76
2021/07/06 10:38:29;;;;;;;1.40;1.20;;;26.50;99.90;;;;;;5033978;28;20499;-76
2021/07/06 10:40:59;;;;;;;2.50;1.40;;;26.30;99.90;;;;;;5032393;28;20031;-76
2021/07/06 10:43:32;;;;;;;3.00;1.38;;;26.40;99.90;;;;;;5033831;28;20029;-75
2021/07/06 10:46:29;;;;;;;1.50;1.20;;;26.70;99.90;;;;;;5019902;28;20091;-77
2021/07/06 10:49:09;;;;;;;1.85;1.50;;;27.20;99.90;;;;;;5032106;28;20364;-76
2021/07/06 10:51:34;;;;;;;2.00;1.30;;;27.50;99.90;;;;;;5032273;28;20051;-76
2021/07/06 10:54:03;;;;;;;4.10;1.40;;;27.20;99.90;;;;;;5032006;28;20060;-76
2021/07/06 10:56:46;;;;;;;3.80;1.10;;;26.90;99.90;;;;;;5033106;28;20028;-76
2021/07/06 10:59:19;;;;;;;3.10;1.30;;;26.60;99.90;;;;;;5033347;28;20048;-76
2021/07/06 11:01:47;;;;;;;1.95;1.50;;;26.30;99.90;;;;;;5033458;28;20376;-76
2021/07/06 11:04:43;;;;;;;2.97;1.60;;;25.90;99.90;;;;;;5032973;28;20087;-76
2021/07/06 11:07:27;;;;;;;2.65;1.40;;;25.80;99.90;;;;;;5032716;28;20029;-75
2021/07/06 11:09:52;;;;;;;2.97;1.30;;;25.70;99.90;;;;;;5032923;28;20049;-76
2021/07/06 11:12:24;;;;;;;2.03;1.40;;;25.50;99.90;;;;;;5032936;28;20426;-75
2021/07/06 11:14:57;;;;;;;4.05;1.48;;;25.30;99.90;;;;;;5032717;28;20013;-75
2021/07/06 11:17:42;;;;;;;2.90;1.45;;;25.10;99.90;;;;;;5032756;28;20104;-75
2021/07/06 11:20:26;;;;;;;3.05;1.35;;;25.10;99.90;;;;;;5031548;28;20029;-75
2021/07/06 11:22:56;;;;;;;2.33;1.30;;;25.00;99.90;;;;;;5031530;28;20036;-75
2021/07/06 11:25:34;;;;;;;1.95;1.30;;;24.90;99.90;;;;;;5032438;28;20048;-76
2021/07/06 11:28:00;;;;;;;2.88;1.13;;;24.90;99.90;;;;;;5032578;28;20021;-76
2021/07/06 11:30:39;;;;;;;8.00;1.80;;;23.10;99.90;;;;;;5032741;28;20108;-75
2021/07/06 11:33:12;;;;;;;5.30;1.63;;;21.20;99.90;;;;;;5032519;28;20027;-75
2021/07/06 11:35:41;;;;;;;5.80;2.03;;;20.00;99.90;;;;;;5032183;28;20026;-75
2021/07/06 11:38:10;;;;;;;7.97;2.60;;;19.40;99.90;;;;;;5032446;28;20518;-75
2021/07/06 11:40:38;;;;;;;7.03;2.78;;;19.30;99.90;;;;;;5032268;28;20022;-75
2021/07/06 11:43:04;;;;;;;5.00;3.10;;;19.50;99.90;;;;;;5032373;28;20025;-75
2021/07/06 11:45:30;;;;;;;5.90;2.80;;;19.70;99.90;;;;;;5031955;28;20017;-75
2021/07/06 11:48:24;;;;;;;4.40;2.53;;;19.90;99.90;;;;;;5032277;28;20483;-75
2021/07/06 11:50:50;;;;;;;3.92;2.80;;;20.40;99.90;;;;;;5029518;28;20026;-74
2021/07/06 11:53:23;;;;;;;4.60;2.92;;;20.70;99.90;;;;;;5032195;28;20075;-75
2021/07/06 11:55:50;;;;;;;4.95;3.00;;;21.10;99.90;;;;;;5031896;28;20017;-75
2021/07/06 11:58:22;;;;;;;4.05;3.05;;;22.00;99.90;;;;;;5030745;28;20021;-74
2021/07/06 12:00:47;;;;;;;4.15;2.75;;;21.90;99.90;;;;;;5030908;28;20025;-75
2021/07/06 12:03:15;;;;;;;3.60;2.30;;;22.10;99.90;;;;;;5031914;28;20036;-75
2021/07/06 12:05:40;;;;;;;5.00;2.75;;;21.70;99.90;;;;;;5031651;28;20037;-75
2021/07/06 12:08:26;;;;;;;2.55;2.20;;;22.30;99.90;;;;;;5031952;28;20026;-76
2021/07/06 12:11:09;;;;;;;4.43;2.20;;;23.20;99.90;;;;;;5031999;28;20050;-76
2021/07/06 12:13:39;;;;;;;4.28;2.50;;;22.80;99.90;;;;;;5019903;28;20557;-75
2021/07/06 12:16:26;;;;;;;2.72;2.15;;;22.50;99.90;;;;;;5031554;28;20053;-75
2021/07/06 12:18:56;;;;;;;5.30;2.45;;;22.50;99.90;;;;;;5031825;28;20025;-75
2021/07/06 12:21:29;;;;;;;4.47;2.00;;;23.20;99.90;;;;;;5031720;28;20022;-75
2021/07/06 12:23:57;;;;;;;2.80;2.10;;;23.30;99.90;;;;;;5031806;28;20120;-75
2021/07/06 12:26:23;;;;;;;3.92;1.90;;;23.40;99.90;;;;;;5029951;28;20437;-75
2021/07/06 12:28:49;;;;;;;3.88;2.40;;;23.60;99.90;;;;;;5030393;28;20033;-75
2021/07/06 12:31:28;;;;;;;3.20;2.35;;;23.60;99.90;;;;;;5031637;28;20383;-75
2021/07/06 12:34:10;;;;;;;4.80;2.50;;;23.30;99.90;;;;;;5031506;28;20044;-75
2021/07/06 12:36:35;;;;;;;3.10;2.30;;;23.50;99.90;;;;;;5030084;28;20381;-75
2021/07/06 12:39:11;;;;;;;3.90;2.10;;;23.60;99.90;;;;;;5030275;28;20036;-75
2021/07/06 12:41:45;;;;;;;3.67;2.13;;;24.00;99.90;;;;;;5030255;28;20025;-75
2021/07/06 12:44:11;;;;;;;2.10;1.70;;;24.30;99.90;;;;;;5031672;28;20169;-75
2021/07/06 12:46:38;;;;;;;3.30;2.05;;;25.00;99.90;;;;;;5031407;28;20029;-75
2021/07/06 12:49:04;;;;;;;4.15;1.95;;;25.10;99.90;;;;;;5031678;28;20029;-76
2021/07/06 12:51:30;;;;;;;3.30;1.67;;;25.70;99.90;;;;;;5034497;28;20025;-76
2021/07/06 12:53:57;;;;;;;2.88;1.40;;;25.70;99.90;;;;;;5034314;28;20029;-76
2021/07/06 12:56:28;;;;;;;3.28;1.80;;;26.00;99.90;;;;;;5035214;28;20021;-76
2021/07/06 12:58:54;;;;;;;1.85;1.60;;;25.60;99.90;;;;;;5035542;28;20029;-76